sensor_id;sensor_type;location;lat;lon;timestamp;P1;durP1;ratioP1;P2;durP2;ratioP2
38208;SDS011;24016;52.102;11.584;2024-01-30T00:02:13;15.52;;;11.50;;
38208;SDS011;24016;52.102;11.584;2024-01-30T00:04:39;17.48;;;11.57;;
38208;SDS011;24016;52.102;11.584;2024-01-30T00:07:04;14.93;;;11.05;;
38208;SDS011;24016;52.102;11.584;2024-01-30T00:09:30;15.15;;;11.05;;
38208;SDS011;24016;52.102;11.584;2024-01-30T00:11:55;15.85;;;11.80;;
38208;SDS011;24016;52.102;11.584;2024-01-30T00:14:21;20.00;;;12.52;;
38208;SDS011;24016;52.102;11.584;2024-01-30T00:16:46;15.05;;;11.35;;
38208;SDS011;24016;52.102;11.584;2024-01-30T00:19:12;17.42;;;12.13;;
38208;SDS011;24016;52.102;11.584;2024-01-30T00:21:37;15.77;;;12.07;;
38208;SDS011;24016;52.102;11.584;2024-01-30T00:24:03;14.75;;;11.18;;
38208;SDS011;24016;52.102;11.584;2024-01-30T00:26:29;15.45;;;12.25;;
38208;SDS011;24016;52.102;11.584;2024-01-30T00:28:54;15.80;;;11.23;;
38208;SDS011;24016;52.102;11.584;2024-01-30T00:31:20;17.25;;;12.20;;
38208;SDS011;24016;52.102;11.584;2024-01-30T00:33:45;18.55;;;10.90;;
38208;SDS011;24016;52.102;11.584;2024-01-30T00:36:11;13.57;;;10.77;;
38208;SDS011;24016;52.102;11.584;2024-01-30T00:38:36;15.02;;;10.50;;
38208;SDS011;24016;52.102;11.584;2024-01-30T00:41:02;16.58;;;10.57;;
38208;SDS011;24016;52.102;11.584;2024-01-30T00:43:28;15.68;;;10.98;;
38208;SDS011;24016;52.102;11.584;2024-01-30T00:45:54;15.70;;;10.57;;
38208;SDS011;24016;52.102;11.584;2024-01-30T00:48:20;16.30;;;11.35;;
38208;SDS011;24016;52.102;11.584;2024-01-30T00:50:46;15.30;;;10.93;;
38208;SDS011;24016;52.102;11.584;2024-01-30T00:53:11;15.70;;;11.48;;
38208;SDS011;24016;52.102;11.584;2024-01-30T00:55:37;17.13;;;11.07;;
38208;SDS011;24016;52.102;11.584;2024-01-30T00:58:02;16.35;;;10.73;;
38208;SDS011;24016;52.102;11.584;2024-01-30T01:00:29;17.65;;;11.23;;
38208;SDS011;24016;52.102;11.584;2024-01-30T01:02:56;18.98;;;11.60;;
38208;SDS011;24016;52.102;11.584;2024-01-30T01:05:21;13.88;;;10.85;;
38208;SDS011;24016;52.102;11.584;2024-01-30T01:07:47;17.88;;;11.00;;
38208;SDS011;24016;52.102;11.584;2024-01-30T01:10:13;15.80;;;10.57;;
38208;SDS011;24016;52.102;11.584;2024-01-30T01:12:39;15.43;;;11.10;;
38208;SDS011;24016;52.102;11.584;2024-01-30T01:15:05;15.35;;;11.13;;
38208;SDS011;24016;52.102;11.584;2024-01-30T01:17:34;14.52;;;10.45;;
38208;SDS011;24016;52.102;11.584;2024-01-30T01:19:59;15.98;;;10.27;;
38208;SDS011;24016;52.102;11.584;2024-01-30T01:22:25;12.52;;;10.07;;
38208;SDS011;24016;52.102;11.584;2024-01-30T01:24:51;15.82;;;11.15;;
38208;SDS011;24016;52.102;11.584;2024-01-30T01:27:16;14.38;;;11.00;;
38208;SDS011;24016;52.102;11.584;2024-01-30T01:29:42;16.42;;;10.77;;
38208;SDS011;24016;52.102;11.584;2024-01-30T01:32:08;17.33;;;11.88;;
38208;SDS011;24016;52.102;11.584;2024-01-30T01:34:33;14.93;;;11.07;;
38208;SDS011;24016;52.102;11.584;2024-01-30T01:36:59;18.75;;;12.05;;
38208;SDS011;24016;52.102;11.584;2024-01-30T01:39:24;15.32;;;11.50;;
38208;SDS011;24016;52.102;11.584;2024-01-30T01:41:50;14.73;;;11.13;;
38208;SDS011;24016;52.102;11.584;2024-01-30T01:44:17;16.05;;;11.27;;
38208;SDS011;24016;52.102;11.584;2024-01-30T01:46:43;15.98;;;10.98;;
38208;SDS011;24016;52.102;11.584;2024-01-30T01:49:08;17.73;;;11.63;;
38208;SDS011;24016;52.102;11.584;2024-01-30T01:51:35;15.45;;;10.93;;
38208;SDS011;24016;52.102;11.584;2024-01-30T01:54:02;16.90;;;10.75;;
38208;SDS011;24016;52.102;11.584;2024-01-30T01:56:30;18.83;;;11.05;;
38208;SDS011;24016;52.102;11.584;2024-01-30T01:58:57;17.50;;;11.85;;
38208;SDS011;24016;52.102;11.584;2024-01-30T02:01:25;18.60;;;11.00;;
38208;SDS011;24016;52.102;11.584;2024-01-30T02:03:52;14.00;;;10.35;;
38208;SDS011;24016;52.102;11.584;2024-01-30T02:06:18;14.70;;;11.25;;
38208;SDS011;24016;52.102;11.584;2024-01-30T02:08:44;15.27;;;11.05;;
38208;SDS011;24016;52.102;11.584;2024-01-30T02:11:09;16.02;;;11.73;;
38208;SDS011;24016;52.102;11.584;2024-01-30T02:13:36;16.98;;;12.02;;
38208;SDS011;24016;52.102;11.584;2024-01-30T02:16:02;17.48;;;12.05;;
38208;SDS011;24016;52.102;11.584;2024-01-30T02:18:27;18.98;;;12.40;;
38208;SDS011;24016;52.102;11.584;2024-01-30T02:20:54;18.50;;;12.02;;
38208;SDS011;24016;52.102;11.584;2024-01-30T02:23:23;17.73;;;12.45;;
38208;SDS011;24016;52.102;11.584;2024-01-30T02:25:52;19.38;;;12.15;;
38208;SDS011;24016;52.102;11.584;2024-01-30T02:28:18;16.35;;;11.73;;
38208;SDS011;24016;52.102;11.584;2024-01-30T02:33:20;20.35;;;13.05;;
38208;SDS011;24016;52.102;11.584;2024-01-30T02:35:49;18.10;;;11.48;;
38208;SDS011;24016;52.102;11.584;2024-01-30T02:38:17;16.35;;;11.68;;
38208;SDS011;24016;52.102;11.584;2024-01-30T02:40:47;17.08;;;11.57;;
38208;SDS011;24016;52.102;11.584;2024-01-30T02:43:15;17.23;;;10.73;;
38208;SDS011;24016;52.102;11.584;2024-01-30T02:45:41;16.65;;;10.90;;
38208;SDS011;24016;52.102;11.584;2024-01-30T02:48:07;20.30;;;11.43;;
38208;SDS011;24016;52.102;11.584;2024-01-30T02:50:33;15.70;;;10.73;;
38208;SDS011;24016;52.102;11.584;2024-01-30T02:53:00;20.17;;;11.55;;
38208;SDS011;24016;52.102;11.584;2024-01-30T02:55:29;16.20;;;11.55;;
38208;SDS011;24016;52.102;11.584;2024-01-30T02:57:58;19.90;;;12.40;;
38208;SDS011;24016;52.102;11.584;2024-01-30T03:00:24;21.20;;;12.05;;
38208;SDS011;24016;52.102;11.584;2024-01-30T03:02:50;16.98;;;11.43;;
38208;SDS011;24016;52.102;11.584;2024-01-30T03:05:16;21.63;;;13.23;;
38208;SDS011;24016;52.102;11.584;2024-01-30T03:07:41;18.20;;;12.73;;
38208;SDS011;24016;52.102;11.584;2024-01-30T03:10:07;20.02;;;12.65;;
38208;SDS011;24016;52.102;11.584;2024-01-30T03:12:36;16.92;;;12.00;;
38208;SDS011;24016;52.102;11.584;2024-01-30T03:15:10;19.48;;;12.45;;
38208;SDS011;24016;52.102;11.584;2024-01-30T03:17:36;15.50;;;11.05;;
38208;SDS011;24016;52.102;11.584;2024-01-30T03:20:02;16.90;;;11.07;;
38208;SDS011;24016;52.102;11.584;2024-01-30T03:22:29;17.40;;;12.27;;
38208;SDS011;24016;52.102;11.584;2024-01-30T03:24:54;16.13;;;11.60;;
38208;SDS011;24016;52.102;11.584;2024-01-30T03:27:20;15.85;;;10.82;;
38208;SDS011;24016;52.102;11.584;2024-01-30T03:29:45;15.68;;;10.63;;
38208;SDS011;24016;52.102;11.584;2024-01-30T03:32:11;18.77;;;12.43;;
38208;SDS011;24016;52.102;11.584;2024-01-30T03:34:36;15.93;;;10.35;;
38208;SDS011;24016;52.102;11.584;2024-01-30T03:37:02;15.18;;;10.65;;
38208;SDS011;24016;52.102;11.584;2024-01-30T03:39:28;14.95;;;10.80;;
38208;SDS011;24016;52.102;11.584;2024-01-30T03:41:54;14.55;;;10.45;;
38208;SDS011;24016;52.102;11.584;2024-01-30T03:44:20;15.55;;;10.82;;
38208;SDS011;24016;52.102;11.584;2024-01-30T03:46:45;15.07;;;11.02;;
38208;SDS011;24016;52.102;11.584;2024-01-30T03:49:13;16.98;;;10.75;;
38208;SDS011;24016;52.102;11.584;2024-01-30T03:51:38;17.73;;;11.25;;
38208;SDS011;24016;52.102;11.584;2024-01-30T03:54:04;16.17;;;10.55;;
38208;SDS011;24016;52.102;11.584;2024-01-30T03:56:29;13.68;;;10.23;;
38208;SDS011;24016;52.102;11.584;2024-01-30T03:58:55;16.08;;;11.20;;
38208;SDS011;24016;52.102;11.584;2024-01-30T04:01:22;14.80;;;11.02;;
38208;SDS011;24016;52.102;11.584;2024-01-30T04:03:48;17.00;;;10.95;;
38208;SDS011;24016;52.102;11.584;2024-01-30T04:06:15;15.80;;;11.00;;
38208;SDS011;24016;52.102;11.584;2024-01-30T04:08:40;15.98;;;11.73;;
38208;SDS011;24016;52.102;11.584;2024-01-30T04:11:06;14.52;;;10.32;;
38208;SDS011;24016;52.102;11.584;2024-01-30T04:13:34;15.88;;;11.55;;
38208;SDS011;24016;52.102;11.584;2024-01-30T04:16:01;16.75;;;11.23;;
38208;SDS011;24016;52.102;11.584;2024-01-30T04:18:29;18.00;;;10.73;;
38208;SDS011;24016;52.102;11.584;2024-01-30T04:20:55;15.48;;;10.13;;
38208;SDS011;24016;52.102;11.584;2024-01-30T04:23:23;15.55;;;10.52;;
38208;SDS011;24016;52.102;11.584;2024-01-30T04:25:48;15.57;;;10.40;;
38208;SDS011;24016;52.102;11.584;2024-01-30T04:28:16;17.50;;;10.82;;
38208;SDS011;24016;52.102;11.584;2024-01-30T04:30:41;18.73;;;11.32;;
38208;SDS011;24016;52.102;11.584;2024-01-30T04:33:07;18.33;;;12.05;;
38208;SDS011;24016;52.102;11.584;2024-01-30T04:35:33;19.15;;;12.35;;
38208;SDS011;24016;52.102;11.584;2024-01-30T04:37:58;16.95;;;11.90;;
38208;SDS011;24016;52.102;11.584;2024-01-30T04:40:24;16.55;;;11.38;;
38208;SDS011;24016;52.102;11.584;2024-01-30T04:42:50;17.60;;;11.25;;
38208;SDS011;24016;52.102;11.584;2024-01-30T04:45:18;17.45;;;11.20;;
38208;SDS011;24016;52.102;11.584;2024-01-30T04:47:46;16.67;;;11.48;;
38208;SDS011;24016;52.102;11.584;2024-01-30T04:50:16;20.88;;;11.85;;
38208;SDS011;24016;52.102;11.584;2024-01-30T04:52:42;14.27;;;11.30;;
38208;SDS011;24016;52.102;11.584;2024-01-30T04:55:07;19.52;;;12.18;;
38208;SDS011;24016;52.102;11.584;2024-01-30T04:57:33;20.52;;;11.73;;
38208;SDS011;24016;52.102;11.584;2024-01-30T04:59:59;16.63;;;11.68;;
38208;SDS011;24016;52.102;11.584;2024-01-30T05:02:24;21.13;;;13.18;;
38208;SDS011;24016;52.102;11.584;2024-01-30T05:04:50;18.48;;;12.48;;
38208;SDS011;24016;52.102;11.584;2024-01-30T05:07:15;19.23;;;13.27;;
38208;SDS011;24016;52.102;11.584;2024-01-30T05:09:40;16.80;;;12.00;;
38208;SDS011;24016;52.102;11.584;2024-01-30T05:12:06;19.80;;;12.55;;
38208;SDS011;24016;52.102;11.584;2024-01-30T05:14:32;16.05;;;12.27;;
38208;SDS011;24016;52.102;11.584;2024-01-30T05:16:57;18.55;;;13.43;;
38208;SDS011;24016;52.102;11.584;2024-01-30T05:19:23;18.05;;;12.73;;
38208;SDS011;24016;52.102;11.584;2024-01-30T05:21:49;20.77;;;13.48;;
38208;SDS011;24016;52.102;11.584;2024-01-30T05:24:15;22.95;;;13.13;;
38208;SDS011;24016;52.102;11.584;2024-01-30T05:26:40;16.33;;;11.93;;
38208;SDS011;24016;52.102;11.584;2024-01-30T05:29:06;17.25;;;12.13;;
38208;SDS011;24016;52.102;11.584;2024-01-30T05:31:32;22.10;;;13.90;;
38208;SDS011;24016;52.102;11.584;2024-01-30T05:33:59;17.90;;;12.82;;
38208;SDS011;24016;52.102;11.584;2024-01-30T05:36:25;19.02;;;11.95;;
38208;SDS011;24016;52.102;11.584;2024-01-30T05:38:51;16.40;;;11.73;;
38208;SDS011;24016;52.102;11.584;2024-01-30T05:41:16;15.50;;;11.35;;
38208;SDS011;24016;52.102;11.584;2024-01-30T05:43:42;17.85;;;12.93;;
38208;SDS011;24016;52.102;11.584;2024-01-30T05:46:08;20.13;;;13.50;;
38208;SDS011;24016;52.102;11.584;2024-01-30T05:48:33;20.30;;;13.55;;
38208;SDS011;24016;52.102;11.584;2024-01-30T05:51:00;27.13;;;14.80;;
38208;SDS011;24016;52.102;11.584;2024-01-30T05:53:26;26.08;;;17.48;;
38208;SDS011;24016;52.102;11.584;2024-01-30T05:55:51;23.00;;;16.15;;
38208;SDS011;24016;52.102;11.584;2024-01-30T05:58:17;22.15;;;14.63;;
38208;SDS011;24016;52.102;11.584;2024-01-30T06:00:42;22.20;;;14.90;;
38208;SDS011;24016;52.102;11.584;2024-01-30T06:03:08;22.83;;;14.73;;
38208;SDS011;24016;52.102;11.584;2024-01-30T06:05:33;25.25;;;14.55;;
38208;SDS011;24016;52.102;11.584;2024-01-30T06:07:59;24.65;;;15.13;;
38208;SDS011;24016;52.102;11.584;2024-01-30T06:10:24;24.77;;;16.05;;
38208;SDS011;24016;52.102;11.584;2024-01-30T06:12:50;23.75;;;15.52;;
38208;SDS011;24016;52.102;11.584;2024-01-30T06:15:16;24.92;;;15.50;;
38208;SDS011;24016;52.102;11.584;2024-01-30T06:17:42;22.80;;;15.38;;
38208;SDS011;24016;52.102;11.584;2024-01-30T06:20:07;24.10;;;15.93;;
38208;SDS011;24016;52.102;11.584;2024-01-30T06:22:33;21.92;;;14.93;;
38208;SDS011;24016;52.102;11.584;2024-01-30T06:24:58;23.67;;;15.30;;
38208;SDS011;24016;52.102;11.584;2024-01-30T06:27:24;21.42;;;14.48;;
38208;SDS011;24016;52.102;11.584;2024-01-30T06:29:50;22.40;;;15.02;;
38208;SDS011;24016;52.102;11.584;2024-01-30T06:32:15;26.48;;;15.00;;
38208;SDS011;24016;52.102;11.584;2024-01-30T06:34:41;20.50;;;13.98;;
38208;SDS011;24016;52.102;11.584;2024-01-30T06:37:08;20.95;;;13.30;;
38208;SDS011;24016;52.102;11.584;2024-01-30T06:39:34;20.90;;;14.27;;
38208;SDS011;24016;52.102;11.584;2024-01-30T06:41:59;20.25;;;14.88;;
38208;SDS011;24016;52.102;11.584;2024-01-30T06:44:25;19.92;;;13.73;;
38208;SDS011;24016;52.102;11.584;2024-01-30T06:46:50;20.33;;;13.15;;
38208;SDS011;24016;52.102;11.584;2024-01-30T06:49:16;19.25;;;12.93;;
38208;SDS011;24016;52.102;11.584;2024-01-30T06:51:41;22.00;;;15.10;;
38208;SDS011;24016;52.102;11.584;2024-01-30T06:54:07;18.60;;;13.88;;
38208;SDS011;24016;52.102;11.584;2024-01-30T06:56:33;23.48;;;15.50;;
38208;SDS011;24016;52.102;11.584;2024-01-30T06:58:58;22.27;;;15.55;;
38208;SDS011;24016;52.102;11.584;2024-01-30T07:01:27;19.92;;;14.77;;
38208;SDS011;24016;52.102;11.584;2024-01-30T07:03:56;26.27;;;15.57;;
38208;SDS011;24016;52.102;11.584;2024-01-30T07:06:22;23.50;;;16.13;;
38208;SDS011;24016;52.102;11.584;2024-01-30T07:08:48;25.98;;;15.32;;
38208;SDS011;24016;52.102;11.584;2024-01-30T07:11:18;24.27;;;15.45;;
38208;SDS011;24016;52.102;11.584;2024-01-30T07:13:45;22.38;;;15.07;;
38208;SDS011;24016;52.102;11.584;2024-01-30T07:16:10;23.98;;;16.00;;
38208;SDS011;24016;52.102;11.584;2024-01-30T07:18:36;21.67;;;15.20;;
38208;SDS011;24016;52.102;11.584;2024-01-30T07:21:01;21.30;;;14.70;;
38208;SDS011;24016;52.102;11.584;2024-01-30T07:23:27;21.42;;;14.07;;
38208;SDS011;24016;52.102;11.584;2024-01-30T07:25:54;24.42;;;16.33;;
38208;SDS011;24016;52.102;11.584;2024-01-30T07:28:20;23.38;;;16.00;;
38208;SDS011;24016;52.102;11.584;2024-01-30T07:30:45;22.85;;;15.05;;
38208;SDS011;24016;52.102;11.584;2024-01-30T07:33:12;23.48;;;15.70;;
38208;SDS011;24016;52.102;11.584;2024-01-30T07:35:37;21.00;;;15.18;;
38208;SDS011;24016;52.102;11.584;2024-01-30T07:38:03;27.25;;;16.77;;
38208;SDS011;24016;52.102;11.584;2024-01-30T07:40:29;23.77;;;16.45;;
38208;SDS011;24016;52.102;11.584;2024-01-30T07:42:55;25.52;;;15.73;;
38208;SDS011;24016;52.102;11.584;2024-01-30T07:45:20;24.98;;;16.77;;
38208;SDS011;24016;52.102;11.584;2024-01-30T07:47:50;25.02;;;16.38;;
38208;SDS011;24016;52.102;11.584;2024-01-30T07:50:16;26.45;;;17.10;;
38208;SDS011;24016;52.102;11.584;2024-01-30T07:52:44;23.70;;;16.90;;
38208;SDS011;24016;52.102;11.584;2024-01-30T07:55:10;26.65;;;16.50;;
38208;SDS011;24016;52.102;11.584;2024-01-30T07:57:38;27.67;;;18.42;;
38208;SDS011;24016;52.102;11.584;2024-01-30T08:00:05;24.05;;;16.75;;
38208;SDS011;24016;52.102;11.584;2024-01-30T08:02:32;27.27;;;18.08;;
38208;SDS011;24016;52.102;11.584;2024-01-30T08:04:57;25.40;;;16.67;;
38208;SDS011;24016;52.102;11.584;2024-01-30T08:07:23;26.20;;;16.60;;
38208;SDS011;24016;52.102;11.584;2024-01-30T08:09:48;24.33;;;15.63;;
38208;SDS011;24016;52.102;11.584;2024-01-30T08:12:14;23.35;;;16.67;;
38208;SDS011;24016;52.102;11.584;2024-01-30T08:14:40;25.95;;;17.05;;
38208;SDS011;24016;52.102;11.584;2024-01-30T08:17:06;25.75;;;16.80;;
38208;SDS011;24016;52.102;11.584;2024-01-30T08:19:32;27.17;;;17.15;;
38208;SDS011;24016;52.102;11.584;2024-01-30T08:21:58;24.25;;;15.40;;
38208;SDS011;24016;52.102;11.584;2024-01-30T08:24:23;21.67;;;13.38;;
38208;SDS011;24016;52.102;11.584;2024-01-30T08:26:49;17.10;;;13.38;;
38208;SDS011;24016;52.102;11.584;2024-01-30T08:29:14;18.85;;;12.13;;
38208;SDS011;24016;52.102;11.584;2024-01-30T08:31:40;15.20;;;11.05;;
38208;SDS011;24016;52.102;11.584;2024-01-30T08:34:05;16.98;;;11.88;;
38208;SDS011;24016;52.102;11.584;2024-01-30T08:36:31;18.35;;;10.98;;
38208;SDS011;24016;52.102;11.584;2024-01-30T08:38:56;14.90;;;10.63;;
38208;SDS011;24016;52.102;11.584;2024-01-30T08:41:22;15.18;;;9.60;;
38208;SDS011;24016;52.102;11.584;2024-01-30T08:43:47;17.90;;;11.48;;
38208;SDS011;24016;52.102;11.584;2024-01-30T08:46:13;16.40;;;11.48;;
38208;SDS011;24016;52.102;11.584;2024-01-30T08:48:43;15.85;;;9.20;;
38208;SDS011;24016;52.102;11.584;2024-01-30T08:51:08;18.17;;;11.88;;
38208;SDS011;24016;52.102;11.584;2024-01-30T08:53:35;18.55;;;11.52;;
38208;SDS011;24016;52.102;11.584;2024-01-30T08:56:01;18.40;;;11.18;;
38208;SDS011;24016;52.102;11.584;2024-01-30T08:58:27;19.98;;;11.07;;
38208;SDS011;24016;52.102;11.584;2024-01-30T09:00:53;17.73;;;10.52;;
38208;SDS011;24016;52.102;11.584;2024-01-30T09:03:19;9.05;;;7.28;;
38208;SDS011;24016;52.102;11.584;2024-01-30T09:05:44;14.13;;;8.13;;
38208;SDS011;24016;52.102;11.584;2024-01-30T09:08:10;11.23;;;8.05;;
38208;SDS011;24016;52.102;11.584;2024-01-30T09:10:35;14.35;;;8.93;;
38208;SDS011;24016;52.102;11.584;2024-01-30T09:13:01;14.10;;;9.23;;
38208;SDS011;24016;52.102;11.584;2024-01-30T09:15:27;15.70;;;8.43;;
38208;SDS011;24016;52.102;11.584;2024-01-30T09:17:53;11.73;;;8.18;;
38208;SDS011;24016;52.102;11.584;2024-01-30T09:20:18;19.02;;;9.10;;
38208;SDS011;24016;52.102;11.584;2024-01-30T09:22:45;15.40;;;8.82;;
38208;SDS011;24016;52.102;11.584;2024-01-30T09:25:11;12.27;;;7.70;;
38208;SDS011;24016;52.102;11.584;2024-01-30T09:27:36;8.40;;;6.85;;
38208;SDS011;24016;52.102;11.584;2024-01-30T09:30:02;10.43;;;6.70;;
38208;SDS011;24016;52.102;11.584;2024-01-30T09:32:28;9.95;;;6.40;;
38208;SDS011;24016;52.102;11.584;2024-01-30T09:34:53;10.63;;;6.45;;
38208;SDS011;24016;52.102;11.584;2024-01-30T09:37:19;13.43;;;6.80;;
38208;SDS011;24016;52.102;11.584;2024-01-30T09:39:45;9.05;;;6.25;;
38208;SDS011;24016;52.102;11.584;2024-01-30T09:44:56;12.05;;;7.40;;
38208;SDS011;24016;52.102;11.584;2024-01-30T09:47:22;12.23;;;6.78;;
38208;SDS011;24016;52.102;11.584;2024-01-30T09:49:48;11.82;;;6.70;;
38208;SDS011;24016;52.102;11.584;2024-01-30T09:52:14;11.65;;;7.55;;
38208;SDS011;24016;52.102;11.584;2024-01-30T09:54:40;13.25;;;7.60;;
38208;SDS011;24016;52.102;11.584;2024-01-30T09:57:07;14.93;;;8.23;;
38208;SDS011;24016;52.102;11.584;2024-01-30T09:59:32;11.60;;;7.05;;
38208;SDS011;24016;52.102;11.584;2024-01-30T10:01:58;11.82;;;7.13;;
38208;SDS011;24016;52.102;11.584;2024-01-30T10:04:23;13.40;;;6.40;;
38208;SDS011;24016;52.102;11.584;2024-01-30T10:06:49;10.52;;;6.43;;
38208;SDS011;24016;52.102;11.584;2024-01-30T10:09:16;10.52;;;6.90;;
38208;SDS011;24016;52.102;11.584;2024-01-30T10:11:41;10.73;;;6.32;;
38208;SDS011;24016;52.102;11.584;2024-01-30T10:14:07;8.73;;;5.25;;
38208;SDS011;24016;52.102;11.584;2024-01-30T10:16:34;10.57;;;6.40;;
38208;SDS011;24016;52.102;11.584;2024-01-30T10:18:59;11.13;;;5.35;;
38208;SDS011;24016;52.102;11.584;2024-01-30T10:21:25;12.25;;;6.32;;
38208;SDS011;24016;52.102;11.584;2024-01-30T10:23:50;15.02;;;6.10;;
38208;SDS011;24016;52.102;11.584;2024-01-30T10:26:16;13.18;;;6.30;;
38208;SDS011;24016;52.102;11.584;2024-01-30T10:28:45;10.85;;;6.00;;
38208;SDS011;24016;52.102;11.584;2024-01-30T10:31:10;7.57;;;5.55;;
38208;SDS011;24016;52.102;11.584;2024-01-30T10:33:36;10.18;;;6.63;;
38208;SDS011;24016;52.102;11.584;2024-01-30T10:36:02;7.72;;;5.80;;
38208;SDS011;24016;52.102;11.584;2024-01-30T10:38:29;8.20;;;5.20;;
38208;SDS011;24016;52.102;11.584;2024-01-30T10:40:56;9.75;;;5.60;;
38208;SDS011;24016;52.102;11.584;2024-01-30T10:43:23;9.25;;;5.82;;
38208;SDS011;24016;52.102;11.584;2024-01-30T10:45:55;9.18;;;5.72;;
38208;SDS011;24016;52.102;11.584;2024-01-30T10:48:27;7.38;;;5.43;;
38208;SDS011;24016;52.102;11.584;2024-01-30T10:50:54;8.30;;;5.78;;
38208;SDS011;24016;52.102;11.584;2024-01-30T10:53:22;9.70;;;6.32;;
38208;SDS011;24016;52.102;11.584;2024-01-30T10:55:49;8.07;;;6.47;;
38208;SDS011;24016;52.102;11.584;2024-01-30T10:58:17;9.90;;;6.55;;
38208;SDS011;24016;52.102;11.584;2024-01-30T11:00:43;8.10;;;5.75;;
38208;SDS011;24016;52.102;11.584;2024-01-30T11:03:09;9.65;;;5.68;;
38208;SDS011;24016;52.102;11.584;2024-01-30T11:05:35;8.75;;;6.15;;
38208;SDS011;24016;52.102;11.584;2024-01-30T11:08:10;10.45;;;6.18;;
38208;SDS011;24016;52.102;11.584;2024-01-30T11:10:49;10.13;;;5.95;;
38208;SDS011;24016;52.102;11.584;2024-01-30T11:13:15;11.65;;;5.88;;
38208;SDS011;24016;52.102;11.584;2024-01-30T11:15:41;7.43;;;5.47;;
38208;SDS011;24016;52.102;11.584;2024-01-30T11:18:07;8.60;;;6.10;;
38208;SDS011;24016;52.102;11.584;2024-01-30T11:20:33;7.95;;;5.88;;
38208;SDS011;24016;52.102;11.584;2024-01-30T11:23:02;8.02;;;5.82;;
38208;SDS011;24016;52.102;11.584;2024-01-30T11:25:31;8.80;;;6.03;;
38208;SDS011;24016;52.102;11.584;2024-01-30T11:27:57;10.55;;;6.82;;
38208;SDS011;24016;52.102;11.584;2024-01-30T11:30:23;10.15;;;6.05;;
38208;SDS011;24016;52.102;11.584;2024-01-30T11:33:00;10.32;;;5.90;;
38208;SDS011;24016;52.102;11.584;2024-01-30T11:35:30;8.85;;;5.95;;
38208;SDS011;24016;52.102;11.584;2024-01-30T11:38:09;8.55;;;5.60;;
38208;SDS011;24016;52.102;11.584;2024-01-30T11:40:39;11.15;;;7.10;;
38208;SDS011;24016;52.102;11.584;2024-01-30T11:43:06;8.07;;;5.30;;
38208;SDS011;24016;52.102;11.584;2024-01-30T11:45:33;7.63;;;5.25;;
38208;SDS011;24016;52.102;11.584;2024-01-30T11:47:59;9.48;;;5.90;;
38208;SDS011;24016;52.102;11.584;2024-01-30T11:52:56;7.60;;;5.18;;
38208;SDS011;24016;52.102;11.584;2024-01-30T11:55:24;7.65;;;4.72;;
38208;SDS011;24016;52.102;11.584;2024-01-30T11:57:50;11.73;;;7.10;;
38208;SDS011;24016;52.102;11.584;2024-01-30T12:00:16;8.57;;;5.35;;
38208;SDS011;24016;52.102;11.584;2024-01-30T12:02:43;8.43;;;5.85;;
38208;SDS011;24016;52.102;11.584;2024-01-30T12:05:09;8.98;;;5.80;;
38208;SDS011;24016;52.102;11.584;2024-01-30T12:07:35;8.77;;;6.20;;
38208;SDS011;24016;52.102;11.584;2024-01-30T12:10:01;7.18;;;5.28;;
38208;SDS011;24016;52.102;11.584;2024-01-30T12:12:27;8.90;;;5.80;;
38208;SDS011;24016;52.102;11.584;2024-01-30T12:14:54;11.30;;;6.53;;
38208;SDS011;24016;52.102;11.584;2024-01-30T12:17:28;9.82;;;5.65;;
38208;SDS011;24016;52.102;11.584;2024-01-30T12:20:05;7.50;;;5.93;;
38208;SDS011;24016;52.102;11.584;2024-01-30T12:22:32;8.57;;;5.65;;
38208;SDS011;24016;52.102;11.584;2024-01-30T12:25:00;9.68;;;5.95;;
38208;SDS011;24016;52.102;11.584;2024-01-30T12:27:26;8.88;;;5.57;;
38208;SDS011;24016;52.102;11.584;2024-01-30T12:29:55;9.07;;;5.55;;
38208;SDS011;24016;52.102;11.584;2024-01-30T12:32:22;8.15;;;5.50;;
38208;SDS011;24016;52.102;11.584;2024-01-30T12:34:48;8.98;;;5.43;;
38208;SDS011;24016;52.102;11.584;2024-01-30T12:37:14;8.23;;;5.63;;
38208;SDS011;24016;52.102;11.584;2024-01-30T12:39:44;7.47;;;4.90;;
38208;SDS011;24016;52.102;11.584;2024-01-30T12:42:10;8.77;;;4.70;;
38208;SDS011;24016;52.102;11.584;2024-01-30T12:44:36;7.57;;;4.97;;
38208;SDS011;24016;52.102;11.584;2024-01-30T12:47:04;9.10;;;5.65;;
38208;SDS011;24016;52.102;11.584;2024-01-30T12:49:30;7.05;;;5.10;;
38208;SDS011;24016;52.102;11.584;2024-01-30T12:51:55;7.28;;;5.05;;
38208;SDS011;24016;52.102;11.584;2024-01-30T12:54:22;13.93;;;5.47;;
38208;SDS011;24016;52.102;11.584;2024-01-30T12:56:48;7.93;;;5.40;;
38208;SDS011;24016;52.102;11.584;2024-01-30T12:59:13;7.75;;;5.60;;
38208;SDS011;24016;52.102;11.584;2024-01-30T13:01:39;12.40;;;5.30;;
38208;SDS011;24016;52.102;11.584;2024-01-30T13:04:04;7.72;;;5.10;;
38208;SDS011;24016;52.102;11.584;2024-01-30T13:06:30;7.25;;;4.97;;
38208;SDS011;24016;52.102;11.584;2024-01-30T13:08:55;7.05;;;5.43;;
38208;SDS011;24016;52.102;11.584;2024-01-30T13:11:21;8.00;;;4.78;;
38208;SDS011;24016;52.102;11.584;2024-01-30T13:13:47;9.05;;;4.93;;
38208;SDS011;24016;52.102;11.584;2024-01-30T13:16:12;7.13;;;4.72;;
38208;SDS011;24016;52.102;11.584;2024-01-30T13:18:38;10.40;;;4.80;;
38208;SDS011;24016;52.102;11.584;2024-01-30T13:21:03;7.68;;;5.10;;
38208;SDS011;24016;52.102;11.584;2024-01-30T13:23:29;8.07;;;4.85;;
38208;SDS011;24016;52.102;11.584;2024-01-30T13:25:54;9.57;;;5.38;;
38208;SDS011;24016;52.102;11.584;2024-01-30T13:28:23;7.43;;;4.82;;
38208;SDS011;24016;52.102;11.584;2024-01-30T13:30:49;9.18;;;5.57;;
38208;SDS011;24016;52.102;11.584;2024-01-30T13:33:14;7.93;;;5.57;;
38208;SDS011;24016;52.102;11.584;2024-01-30T13:35:40;6.20;;;4.47;;
38208;SDS011;24016;52.102;11.584;2024-01-30T13:38:05;8.13;;;5.22;;
38208;SDS011;24016;52.102;11.584;2024-01-30T13:40:31;6.55;;;5.07;;
38208;SDS011;24016;52.102;11.584;2024-01-30T13:42:56;9.40;;;4.90;;
38208;SDS011;24016;52.102;11.584;2024-01-30T13:45:22;6.78;;;4.45;;
38208;SDS011;24016;52.102;11.584;2024-01-30T13:47:47;7.43;;;5.38;;
38208;SDS011;24016;52.102;11.584;2024-01-30T13:50:13;8.95;;;5.22;;
38208;SDS011;24016;52.102;11.584;2024-01-30T13:52:41;9.00;;;5.03;;
38208;SDS011;24016;52.102;11.584;2024-01-30T13:55:11;9.40;;;5.10;;
38208;SDS011;24016;52.102;11.584;2024-01-30T13:57:37;7.40;;;4.82;;
38208;SDS011;24016;52.102;11.584;2024-01-30T14:00:03;11.20;;;6.13;;
38208;SDS011;24016;52.102;11.584;2024-01-30T14:02:31;8.52;;;4.88;;
38208;SDS011;24016;52.102;11.584;2024-01-30T14:04:57;8.63;;;5.30;;
38208;SDS011;24016;52.102;11.584;2024-01-30T14:07:22;7.30;;;4.78;;
38208;SDS011;24016;52.102;11.584;2024-01-30T14:09:48;7.38;;;4.43;;
38208;SDS011;24016;52.102;11.584;2024-01-30T14:12:14;9.07;;;5.53;;
38208;SDS011;24016;52.102;11.584;2024-01-30T14:14:40;12.35;;;6.50;;
38208;SDS011;24016;52.102;11.584;2024-01-30T14:17:06;6.75;;;5.70;;
38208;SDS011;24016;52.102;11.584;2024-01-30T14:19:35;8.60;;;5.50;;